sensor_id;sensor_type;location;lat;lon;timestamp;P1;durP1;ratioP1;P2;durP2;ratioP2
25351;SDS011;13304;48.464;8.712;2022-09-16T00:01:18;7.00;;;4.72;;
25351;SDS011;13304;48.464;8.712;2022-09-16T00:03:45;7.93;;;4.63;;
25351;SDS011;13304;48.464;8.712;2022-09-16T00:06:19;11.38;;;4.50;;
25351;SDS011;13304;48.464;8.712;2022-09-16T00:08:49;6.60;;;4.80;;
25351;SDS011;13304;48.464;8.712;2022-09-16T00:11:16;5.97;;;4.18;;
25351;SDS011;13304;48.464;8.712;2022-09-16T00:13:43;7.53;;;4.38;;
25351;SDS011;13304;48.464;8.712;2022-09-16T00:16:10;6.32;;;4.20;;
25351;SDS011;13304;48.464;8.712;2022-09-16T00:18:40;5.18;;;3.85;;
25351;SDS011;13304;48.464;8.712;2022-09-16T00:21:09;9.25;;;4.50;;
25351;SDS011;13304;48.464;8.712;2022-09-16T00:23:35;12.57;;;4.63;;
25351;SDS011;13304;48.464;8.712;2022-09-16T00:26:02;6.60;;;4.95;;
25351;SDS011;13304;48.464;8.712;2022-09-16T00:28:28;6.20;;;4.32;;
25351;SDS011;13304;48.464;8.712;2022-09-16T00:30:58;5.13;;;4.45;;
25351;SDS011;13304;48.464;8.712;2022-09-16T00:33:24;7.13;;;4.10;;
25351;SDS011;13304;48.464;8.712;2022-09-16T00:35:50;10.38;;;4.13;;
25351;SDS011;13304;48.464;8.712;2022-09-16T00:38:16;6.90;;;4.43;;
25351;SDS011;13304;48.464;8.712;2022-09-16T00:40:45;6.28;;;4.80;;
25351;SDS011;13304;48.464;8.712;2022-09-16T00:43:13;6.97;;;4.47;;
25351;SDS011;13304;48.464;8.712;2022-09-16T00:45:43;6.70;;;4.18;;
25351;SDS011;13304;48.464;8.712;2022-09-16T00:48:14;9.52;;;4.53;;
25351;SDS011;13304;48.464;8.712;2022-09-16T00:50:49;7.00;;;4.28;;
25351;SDS011;13304;48.464;8.712;2022-09-16T00:53:38;8.05;;;4.18;;
25351;SDS011;13304;48.464;8.712;2022-09-16T00:56:07;8.00;;;4.30;;
25351;SDS011;13304;48.464;8.712;2022-09-16T00:58:43;10.38;;;4.07;;
25351;SDS011;13304;48.464;8.712;2022-09-16T01:01:12;7.22;;;4.47;;
25351;SDS011;13304;48.464;8.712;2022-09-16T01:03:51;7.75;;;4.57;;
25351;SDS011;13304;48.464;8.712;2022-09-16T01:06:20;6.72;;;4.45;;
25351;SDS011;13304;48.464;8.712;2022-09-16T01:08:48;5.60;;;4.30;;
25351;SDS011;13304;48.464;8.712;2022-09-16T01:11:15;11.20;;;4.57;;
25351;SDS011;13304;48.464;8.712;2022-09-16T01:13:40;8.73;;;4.90;;
25351;SDS011;13304;48.464;8.712;2022-09-16T01:16:10;6.65;;;4.82;;
25351;SDS011;13304;48.464;8.712;2022-09-16T01:18:46;8.07;;;4.50;;
25351;SDS011;13304;48.464;8.712;2022-09-16T01:27:20;5.22;;;3.90;;
25351;SDS011;13304;48.464;8.712;2022-09-16T01:30:15;7.35;;;4.63;;
25351;SDS011;13304;48.464;8.712;2022-09-16T01:41:22;6.53;;;4.95;;
25351;SDS011;13304;48.464;8.712;2022-09-16T01:52:08;7.40;;;4.80;;
25351;SDS011;13304;48.464;8.712;2022-09-16T01:54:40;7.93;;;4.63;;
25351;SDS011;13304;48.464;8.712;2022-09-16T01:57:14;8.02;;;4.75;;
25351;SDS011;13304;48.464;8.712;2022-09-16T01:59:51;5.80;;;4.20;;
25351;SDS011;13304;48.464;8.712;2022-09-16T02:02:45;5.30;;;4.22;;
25351;SDS011;13304;48.464;8.712;2022-09-16T02:08:38;6.45;;;4.10;;
25351;SDS011;13304;48.464;8.712;2022-09-16T02:11:09;6.20;;;4.50;;
25351;SDS011;13304;48.464;8.712;2022-09-16T02:16:25;7.65;;;4.53;;
25351;SDS011;13304;48.464;8.712;2022-09-16T02:19:00;5.57;;;4.28;;
25351;SDS011;13304;48.464;8.712;2022-09-16T02:21:33;6.50;;;4.60;;
25351;SDS011;13304;48.464;8.712;2022-09-16T02:24:02;8.05;;;4.70;;
25351;SDS011;13304;48.464;8.712;2022-09-16T02:26:34;8.73;;;5.05;;
25351;SDS011;13304;48.464;8.712;2022-09-16T02:29:06;7.00;;;5.18;;
25351;SDS011;13304;48.464;8.712;2022-09-16T02:31:38;6.55;;;5.05;;
25351;SDS011;13304;48.464;8.712;2022-09-16T02:34:13;8.65;;;4.95;;
25351;SDS011;13304;48.464;8.712;2022-09-16T02:36:42;8.85;;;5.03;;
25351;SDS011;13304;48.464;8.712;2022-09-16T02:39:15;6.38;;;4.68;;
25351;SDS011;13304;48.464;8.712;2022-09-16T02:41:47;7.53;;;4.90;;
25351;SDS011;13304;48.464;8.712;2022-09-16T02:44:13;5.43;;;4.32;;
25351;SDS011;13304;48.464;8.712;2022-09-16T02:57:15;6.30;;;4.80;;
25351;SDS011;13304;48.464;8.712;2022-09-16T02:59:41;6.43;;;4.82;;
25351;SDS011;13304;48.464;8.712;2022-09-16T03:02:08;5.93;;;4.50;;
25351;SDS011;13304;48.464;8.712;2022-09-16T03:04:34;6.28;;;4.82;;
25351;SDS011;13304;48.464;8.712;2022-09-16T03:07:02;6.57;;;4.95;;
25351;SDS011;13304;48.464;8.712;2022-09-16T03:09:33;5.53;;;4.85;;
25351;SDS011;13304;48.464;8.712;2022-09-16T03:25:50;9.38;;;4.90;;
25351;SDS011;13304;48.464;8.712;2022-09-16T03:28:15;5.65;;;4.53;;
25351;SDS011;13304;48.464;8.712;2022-09-16T03:30:47;12.05;;;4.82;;
25351;SDS011;13304;48.464;8.712;2022-09-16T03:36:17;6.75;;;5.30;;
25351;SDS011;13304;48.464;8.712;2022-09-16T03:38:47;8.43;;;5.35;;
25351;SDS011;13304;48.464;8.712;2022-09-16T03:41:14;5.47;;;4.72;;
25351;SDS011;13304;48.464;8.712;2022-09-16T03:43:50;7.43;;;5.28;;
25351;SDS011;13304;48.464;8.712;2022-09-16T03:46:20;6.93;;;5.50;;
25351;SDS011;13304;48.464;8.712;2022-09-16T03:48:46;8.35;;;5.13;;
25351;SDS011;13304;48.464;8.712;2022-09-16T03:51:11;9.93;;;5.47;;
25351;SDS011;13304;48.464;8.712;2022-09-16T03:53:37;14.23;;;5.80;;
25351;SDS011;13304;48.464;8.712;2022-09-16T03:56:03;9.38;;;6.03;;
25351;SDS011;13304;48.464;8.712;2022-09-16T03:58:29;8.18;;;6.03;;
25351;SDS011;13304;48.464;8.712;2022-09-16T04:00:55;10.95;;;5.90;;
25351;SDS011;13304;48.464;8.712;2022-09-16T04:03:20;11.63;;;6.13;;
25351;SDS011;13304;48.464;8.712;2022-09-16T04:05:50;8.85;;;5.75;;
25351;SDS011;13304;48.464;8.712;2022-09-16T04:08:20;7.25;;;5.50;;
25351;SDS011;13304;48.464;8.712;2022-09-16T04:10:53;10.25;;;5.75;;
25351;SDS011;13304;48.464;8.712;2022-09-16T04:13:23;9.48;;;5.40;;
25351;SDS011;13304;48.464;8.712;2022-09-16T04:15:50;7.75;;;5.15;;
25351;SDS011;13304;48.464;8.712;2022-09-16T04:18:16;8.23;;;5.60;;
25351;SDS011;13304;48.464;8.712;2022-09-16T04:20:42;9.45;;;6.00;;
25351;SDS011;13304;48.464;8.712;2022-09-16T04:23:09;7.50;;;5.72;;
25351;SDS011;13304;48.464;8.712;2022-09-16T04:25:34;7.15;;;5.75;;
25351;SDS011;13304;48.464;8.712;2022-09-16T04:28:00;9.02;;;5.47;;
25351;SDS011;13304;48.464;8.712;2022-09-16T04:30:26;7.93;;;6.25;;
25351;SDS011;13304;48.464;8.712;2022-09-16T04:32:52;9.40;;;5.72;;
25351;SDS011;13304;48.464;8.712;2022-09-16T04:35:19;8.55;;;5.85;;
25351;SDS011;13304;48.464;8.712;2022-09-16T04:37:45;9.27;;;5.72;;
25351;SDS011;13304;48.464;8.712;2022-09-16T04:40:10;7.55;;;5.97;;
25351;SDS011;13304;48.464;8.712;2022-09-16T04:42:36;8.63;;;6.00;;
25351;SDS011;13304;48.464;8.712;2022-09-16T04:45:02;8.05;;;6.43;;
25351;SDS011;13304;48.464;8.712;2022-09-16T04:47:28;9.65;;;6.18;;
25351;SDS011;13304;48.464;8.712;2022-09-16T04:49:54;11.13;;;6.55;;
25351;SDS011;13304;48.464;8.712;2022-09-16T04:52:20;10.32;;;6.43;;
25351;SDS011;13304;48.464;8.712;2022-09-16T04:54:46;9.02;;;6.40;;
25351;SDS011;13304;48.464;8.712;2022-09-16T04:57:11;8.48;;;6.40;;
25351;SDS011;13304;48.464;8.712;2022-09-16T04:59:37;8.95;;;5.80;;
25351;SDS011;13304;48.464;8.712;2022-09-16T05:02:03;8.63;;;6.45;;
25351;SDS011;13304;48.464;8.712;2022-09-16T05:04:29;9.20;;;6.28;;
25351;SDS011;13304;48.464;8.712;2022-09-16T05:06:54;9.85;;;5.57;;
25351;SDS011;13304;48.464;8.712;2022-09-16T05:09:20;10.98;;;6.32;;
25351;SDS011;13304;48.464;8.712;2022-09-16T05:11:47;9.40;;;5.85;;
25351;SDS011;13304;48.464;8.712;2022-09-16T05:14:14;8.20;;;6.28;;
25351;SDS011;13304;48.464;8.712;2022-09-16T05:16:41;8.27;;;6.30;;
25351;SDS011;13304;48.464;8.712;2022-09-16T05:19:07;7.25;;;6.07;;
25351;SDS011;13304;48.464;8.712;2022-09-16T05:21:35;10.33;;;6.13;;
25351;SDS011;13304;48.464;8.712;2022-09-16T05:24:03;10.73;;;5.78;;
25351;SDS011;13304;48.464;8.712;2022-09-16T05:26:32;10.10;;;5.32;;
25351;SDS011;13304;48.464;8.712;2022-09-16T05:29:00;7.35;;;5.70;;
25351;SDS011;13304;48.464;8.712;2022-09-16T05:31:28;9.55;;;6.40;;
25351;SDS011;13304;48.464;8.712;2022-09-16T05:34:03;7.55;;;6.03;;
25351;SDS011;13304;48.464;8.712;2022-09-16T05:36:33;8.98;;;6.18;;
25351;SDS011;13304;48.464;8.712;2022-09-16T05:39:01;6.22;;;5.32;;
25351;SDS011;13304;48.464;8.712;2022-09-16T05:41:28;6.10;;;5.32;;
25351;SDS011;13304;48.464;8.712;2022-09-16T05:43:56;8.48;;;6.25;;
25351;SDS011;13304;48.464;8.712;2022-09-16T05:46:25;6.55;;;5.38;;
25351;SDS011;13304;48.464;8.712;2022-09-16T05:48:52;8.27;;;5.38;;
25351;SDS011;13304;48.464;8.712;2022-09-16T05:51:20;11.13;;;6.32;;
25351;SDS011;13304;48.464;8.712;2022-09-16T05:53:47;8.30;;;6.25;;
25351;SDS011;13304;48.464;8.712;2022-09-16T05:56:14;8.38;;;6.10;;
25351;SDS011;13304;48.464;8.712;2022-09-16T05:58:42;10.05;;;6.03;;
25351;SDS011;13304;48.464;8.712;2022-09-16T06:01:12;7.35;;;5.18;;
25351;SDS011;13304;48.464;8.712;2022-09-16T06:03:40;12.05;;;6.15;;
25351;SDS011;13304;48.464;8.712;2022-09-16T06:08:35;6.30;;;5.53;;
25351;SDS011;13304;48.464;8.712;2022-09-16T06:11:08;8.30;;;5.40;;
25351;SDS011;13304;48.464;8.712;2022-09-16T06:13:35;7.82;;;5.88;;
25351;SDS011;13304;48.464;8.712;2022-09-16T06:16:01;8.63;;;6.38;;
25351;SDS011;13304;48.464;8.712;2022-09-16T06:18:28;7.03;;;5.60;;
25351;SDS011;13304;48.464;8.712;2022-09-16T06:20:56;8.10;;;5.82;;
25351;SDS011;13304;48.464;8.712;2022-09-16T06:23:22;8.25;;;6.25;;
25351;SDS011;13304;48.464;8.712;2022-09-16T06:25:57;9.57;;;6.18;;
25351;SDS011;13304;48.464;8.712;2022-09-16T06:28:24;9.43;;;6.65;;
25351;SDS011;13304;48.464;8.712;2022-09-16T06:30:59;7.18;;;5.85;;
25351;SDS011;13304;48.464;8.712;2022-09-16T06:33:26;7.07;;;5.60;;
25351;SDS011;13304;48.464;8.712;2022-09-16T06:35:52;7.72;;;5.20;;
25351;SDS011;13304;48.464;8.712;2022-09-16T06:38:18;9.48;;;5.50;;
25351;SDS011;13304;48.464;8.712;2022-09-16T06:40:44;6.68;;;4.68;;
25351;SDS011;13304;48.464;8.712;2022-09-16T06:43:09;8.32;;;4.88;;
25351;SDS011;13304;48.464;8.712;2022-09-16T06:45:35;8.27;;;5.32;;
25351;SDS011;13304;48.464;8.712;2022-09-16T06:48:01;11.55;;;7.32;;
25351;SDS011;13304;48.464;8.712;2022-09-16T06:50:27;15.65;;;9.30;;
25351;SDS011;13304;48.464;8.712;2022-09-16T06:52:52;10.25;;;7.20;;
25351;SDS011;13304;48.464;8.712;2022-09-16T06:55:18;11.00;;;6.88;;
25351;SDS011;13304;48.464;8.712;2022-09-16T06:57:44;14.27;;;7.00;;
25351;SDS011;13304;48.464;8.712;2022-09-16T07:00:09;13.63;;;7.70;;
25351;SDS011;13304;48.464;8.712;2022-09-16T07:02:36;8.73;;;5.60;;
25351;SDS011;13304;48.464;8.712;2022-09-16T07:05:02;10.73;;;7.00;;
25351;SDS011;13304;48.464;8.712;2022-09-16T07:07:29;11.50;;;6.70;;
25351;SDS011;13304;48.464;8.712;2022-09-16T07:09:56;15.20;;;5.50;;
25351;SDS011;13304;48.464;8.712;2022-09-16T07:12:22;8.18;;;5.22;;
25351;SDS011;13304;48.464;8.712;2022-09-16T07:14:47;9.95;;;4.82;;
25351;SDS011;13304;48.464;8.712;2022-09-16T07:17:13;8.55;;;4.53;;
25351;SDS011;13304;48.464;8.712;2022-09-16T07:19:39;7.82;;;4.53;;
25351;SDS011;13304;48.464;8.712;2022-09-16T07:22:06;8.30;;;4.70;;
25351;SDS011;13304;48.464;8.712;2022-09-16T07:24:32;9.63;;;5.05;;
25351;SDS011;13304;48.464;8.712;2022-09-16T07:26:58;9.40;;;4.45;;
25351;SDS011;13304;48.464;8.712;2022-09-16T07:29:23;6.93;;;4.32;;
25351;SDS011;13304;48.464;8.712;2022-09-16T07:31:49;7.63;;;4.40;;
25351;SDS011;13304;48.464;8.712;2022-09-16T07:34:15;6.63;;;4.43;;
25351;SDS011;13304;48.464;8.712;2022-09-16T07:36:42;9.05;;;5.03;;
25351;SDS011;13304;48.464;8.712;2022-09-16T07:39:10;12.75;;;4.75;;
25351;SDS011;13304;48.464;8.712;2022-09-16T07:41:39;9.80;;;5.78;;
25351;SDS011;13304;48.464;8.712;2022-09-16T07:44:06;10.02;;;6.00;;
25351;SDS011;13304;48.464;8.712;2022-09-16T07:46:35;12.40;;;6.68;;
25351;SDS011;13304;48.464;8.712;2022-09-16T07:49:02;10.68;;;6.28;;
25351;SDS011;13304;48.464;8.712;2022-09-16T07:51:30;18.47;;;7.73;;
25351;SDS011;13304;48.464;8.712;2022-09-16T07:53:59;14.65;;;7.07;;
25351;SDS011;13304;48.464;8.712;2022-09-16T07:56:30;18.52;;;10.43;;
25351;SDS011;13304;48.464;8.712;2022-09-16T07:58:58;16.63;;;9.93;;
25351;SDS011;13304;48.464;8.712;2022-09-16T08:01:25;12.57;;;7.38;;
25351;SDS011;13304;48.464;8.712;2022-09-16T08:03:51;12.38;;;7.55;;
25351;SDS011;13304;48.464;8.712;2022-09-16T08:06:18;13.70;;;8.18;;
25351;SDS011;13304;48.464;8.712;2022-09-16T08:08:46;11.60;;;6.82;;
25351;SDS011;13304;48.464;8.712;2022-09-16T08:11:12;8.57;;;5.45;;
25351;SDS011;13304;48.464;8.712;2022-09-16T08:13:39;8.90;;;6.03;;
25351;SDS011;13304;48.464;8.712;2022-09-16T08:16:16;14.02;;;7.22;;
25351;SDS011;13304;48.464;8.712;2022-09-16T08:18:44;12.07;;;6.82;;
25351;SDS011;13304;48.464;8.712;2022-09-16T08:21:15;11.70;;;7.38;;
25351;SDS011;13304;48.464;8.712;2022-09-16T08:23:43;9.75;;;6.85;;
25351;SDS011;13304;48.464;8.712;2022-09-16T08:26:10;11.90;;;7.93;;
25351;SDS011;13304;48.464;8.712;2022-09-16T08:28:38;31.35;;;15.88;;
25351;SDS011;13304;48.464;8.712;2022-09-16T08:31:06;54.13;;;28.33;;
25351;SDS011;13304;48.464;8.712;2022-09-16T08:33:32;35.58;;;20.20;;
25351;SDS011;13304;48.464;8.712;2022-09-16T08:36:03;35.78;;;19.45;;
25351;SDS011;13304;48.464;8.712;2022-09-16T08:38:32;18.20;;;9.93;;
25351;SDS011;13304;48.464;8.712;2022-09-16T08:47:02;11.55;;;4.30;;
25351;SDS011;13304;48.464;8.712;2022-09-16T08:52:11;8.88;;;3.63;;
25351;SDS011;13304;48.464;8.712;2022-09-16T08:55:02;5.35;;;3.42;;
25351;SDS011;13304;48.464;8.712;2022-09-16T09:00:38;4.65;;;3.22;;
25351;SDS011;13304;48.464;8.712;2022-09-16T09:16:21;7.38;;;3.50;;
25351;SDS011;13304;48.464;8.712;2022-09-16T09:26:57;7.28;;;4.40;;
25351;SDS011;13304;48.464;8.712;2022-09-16T09:32:20;6.43;;;4.32;;
25351;SDS011;13304;48.464;8.712;2022-09-16T09:40:47;9.93;;;4.65;;
25351;SDS011;13304;48.464;8.712;2022-09-16T09:43:24;9.48;;;4.45;;
25351;SDS011;13304;48.464;8.712;2022-09-16T09:54:28;9.07;;;4.82;;
25351;SDS011;13304;48.464;8.712;2022-09-16T09:57:01;7.93;;;4.20;;
25351;SDS011;13304;48.464;8.712;2022-09-16T10:02:13;11.45;;;8.00;;
25351;SDS011;13304;48.464;8.712;2022-09-16T10:04:42;13.75;;;9.95;;
25351;SDS011;13304;48.464;8.712;2022-09-16T10:07:08;9.30;;;7.60;;
25351;SDS011;13304;48.464;8.712;2022-09-16T10:09:37;6.00;;;4.28;;
25351;SDS011;13304;48.464;8.712;2022-09-16T10:12:24;8.00;;;6.43;;
25351;SDS011;13304;48.464;8.712;2022-09-16T10:15:00;7.97;;;4.90;;
25351;SDS011;13304;48.464;8.712;2022-09-16T10:17:27;7.00;;;4.68;;
25351;SDS011;13304;48.464;8.712;2022-09-16T10:19:56;7.07;;;4.45;;
25351;SDS011;13304;48.464;8.712;2022-09-16T10:24:53;7.45;;;3.80;;
25351;SDS011;13304;48.464;8.712;2022-09-16T10:27:31;7.68;;;4.18;;
25351;SDS011;13304;48.464;8.712;2022-09-16T10:32:28;5.90;;;4.07;;
25351;SDS011;13304;48.464;8.712;2022-09-16T10:34:55;8.43;;;3.50;;
25351;SDS011;13304;48.464;8.712;2022-09-16T10:37:21;5.07;;;3.80;;
25351;SDS011;13304;48.464;8.712;2022-09-16T10:39:53;6.82;;;4.50;;
25351;SDS011;13304;48.464;8.712;2022-09-16T10:42:25;4.75;;;3.10;;
25351;SDS011;13304;48.464;8.712;2022-09-16T10:45:02;8.13;;;3.67;;
25351;SDS011;13304;48.464;8.712;2022-09-16T10:47:38;5.38;;;3.08;;
25351;SDS011;13304;48.464;8.712;2022-09-16T10:50:05;5.18;;;2.70;;
25351;SDS011;13304;48.464;8.712;2022-09-16T10:52:39;4.85;;;1.98;;
25351;SDS011;13304;48.464;8.712;2022-09-16T10:55:26;3.92;;;2.38;;
25351;SDS011;13304;48.464;8.712;2022-09-16T10:58:05;2.95;;;1.85;;
25351;SDS011;13304;48.464;8.712;2022-09-16T11:00:36;4.15;;;2.00;;
25351;SDS011;13304;48.464;8.712;2022-09-16T11:22:28;5.38;;;2.42;;
25351;SDS011;13304;48.464;8.712;2022-09-16T11:27:32;3.92;;;1.63;;
25351;SDS011;13304;48.464;8.712;2022-09-16T11:30:08;6.25;;;2.03;;
25351;SDS011;13304;48.464;8.712;2022-09-16T11:49:04;4.22;;;1.67;;
25351;SDS011;13304;48.464;8.712;2022-09-16T11:57:34;3.85;;;1.40;;
25351;SDS011;13304;48.464;8.712;2022-09-16T12:00:13;6.57;;;1.60;;
25351;SDS011;13304;48.464;8.712;2022-09-16T12:05:29;3.53;;;1.58;;
25351;SDS011;13304;48.464;8.712;2022-09-16T12:08:51;4.60;;;1.60;;
25351;SDS011;13304;48.464;8.712;2022-09-16T12:14:05;11.77;;;2.28;;
25351;SDS011;13304;48.464;8.712;2022-09-16T12:16:49;4.72;;;1.83;;
25351;SDS011;13304;48.464;8.712;2022-09-16T12:20:02;4.85;;;1.77;;
25351;SDS011;13304;48.464;8.712;2022-09-16T12:22:18;3.97;;;1.55;;
25351;SDS011;13304;48.464;8.712;2022-09-16T12:24:50;2.70;;;1.45;;
25351;SDS011;13304;48.464;8.712;2022-09-16T12:27:31;4.60;;;1.85;;
25351;SDS011;13304;48.464;8.712;2022-09-16T12:32:45;6.25;;;1.92;;
25351;SDS011;13304;48.464;8.712;2022-09-16T12:35:30;3.97;;;1.33;;
25351;SDS011;13304;48.464;8.712;2022-09-16T12:37:59;4.82;;;1.67;;
25351;SDS011;13304;48.464;8.712;2022-09-16T12:40:26;8.82;;;2.85;;
25351;SDS011;13304;48.464;8.712;2022-09-16T12:43:20;5.72;;;1.60;;
25351;SDS011;13304;48.464;8.712;2022-09-16T13:02:40;7.15;;;1.60;;
25351;SDS011;13304;48.464;8.712;2022-09-16T13:05:21;3.88;;;1.90;;
25351;SDS011;13304;48.464;8.712;2022-09-16T13:07:52;4.15;;;1.80;;
25351;SDS011;13304;48.464;8.712;2022-09-16T13:12:55;4.03;;;1.52;;
25351;SDS011;13304;48.464;8.712;2022-09-16T13:15:26;5.32;;;1.67;;
25351;SDS011;13304;48.464;8.712;2022-09-16T13:17:54;2.95;;;1.40;;
25351;SDS011;13304;48.464;8.712;2022-09-16T13:20:32;3.03;;;1.30;;
25351;SDS011;13304;48.464;8.712;2022-09-16T13:23:05;1.77;;;1.00;;
25351;SDS011;13304;48.464;8.712;2022-09-16T13:25:44;2.70;;;1.13;;
25351;SDS011;13304;48.464;8.712;2022-09-16T13:31:27;4.68;;;1.40;;
25351;SDS011;13304;48.464;8.712;2022-09-16T13:38:49;3.65;;;1.58;;
25351;SDS011;13304;48.464;8.712;2022-09-16T13:43:54;4.80;;;1.50;;
25351;SDS011;13304;48.464;8.712;2022-09-16T13:46:28;5.82;;;1.83;;
25351;SDS011;13304;48.464;8.712;2022-09-16T13:49:02;3.70;;;1.50;;
25351;SDS011;13304;48.464;8.712;2022-09-16T13:51:41;5.32;;;1.70;;
25351;SDS011;13304;48.464;8.712;2022-09-16T13:54:21;5.22;;;1.60;;
25351;SDS011;13304;48.464;8.712;2022-09-16T13:57:04;5.35;;;1.83;;
25351;SDS011;13304;48.464;8.712;2022-09-16T14:13:22;6.82;;;1.92;;
25351;SDS011;13304;48.464;8.712;2022-09-16T14:15:50;4.55;;;1.63;;
25351;SDS011;13304;48.464;8.712;2022-09-16T14:18:21;4.82;;;1.58;;
25351;SDS011;13304;48.464;8.712;2022-09-16T14:20:50;5.75;;;2.03;;
25351;SDS011;13304;48.464;8.712;2022-09-16T14:23:40;4.95;;;1.70;;
25351;SDS011;13304;48.464;8.712;2022-09-16T14:26:10;4.18;;;1.58;;
25351;SDS011;13304;48.464;8.712;2022-09-16T14:28:37;5.70;;;1.63;;
25351;SDS011;13304;48.464;8.712;2022-09-16T14:31:23;5.80;;;1.67;;
25351;SDS011;13304;48.464;8.712;2022-09-16T14:33:54;4.57;;;1.50;;
25351;SDS011;13304;48.464;8.712;2022-09-16T14:36:26;5.03;;;1.88;;
25351;SDS011;13304;48.464;8.712;2022-09-16T14:38:56;6.13;;;1.92;;
25351;SDS011;13304;48.464;8.712;2022-09-16T14:41:29;4.18;;;1.52;;
25351;SDS011;13304;48.464;8.712;2022-09-16T14:46:53;8.25;;;1.90;;
25351;SDS011;13304;48.464;8.712;2022-09-16T14:49:22;8.18;;;1.92;;
25351;SDS011;13304;48.464;8.712;2022-09-16T14:51:58;4.63;;;1.48;;
25351;SDS011;13304;48.464;8.712;2022-09-16T14:54:29;2.88;;;1.60;;
25351;SDS011;13304;48.464;8.712;2022-09-16T14:57:02;6.13;;;1.80;;
25351;SDS011;13304;48.464;8.712;2022-09-16T14:59:32;5.65;;;1.88;;
25351;SDS011;13304;48.464;8.712;2022-09-16T15:02:13;4.55;;;1.77;;
25351;SDS011;13304;48.464;8.712;2022-09-16T15:04:58;4.68;;;1.83;;
25351;SDS011;13304;48.464;8.712;2022-09-16T15:07:33;4.45;;;1.70;;
25351;SDS011;13304;48.464;8.712;2022-09-16T15:10:07;6.38;;;1.70;;
25351;SDS011;13304;48.464;8.712;2022-09-16T15:12:58;5.35;;;1.80;;
25351;SDS011;13304;48.464;8.712;2022-09-16T15:15:28;5.03;;;1.65;;
25351;SDS011;13304;48.464;8.712;2022-09-16T15:18:06;9.20;;;1.75;;
25351;SDS011;13304;48.464;8.712;2022-09-16T15:20:38;6.47;;;1.40;;
25351;SDS011;13304;48.464;8.712;2022-09-16T15:23:06;4.97;;;1.73;;
25351;SDS011;13304;48.464;8.712;2022-09-16T15:25:49;3.65;;;1.60;;
25351;SDS011;13304;48.464;8.712;2022-09-16T15:28:18;4.97;;;1.70;;
25351;SDS011;13304;48.464;8.712;2022-09-16T15:30:48;4.28;;;1.70;;
25351;SDS011;13304;48.464;8.712;2022-09-16T15:35:50;3.15;;;1.55;;
25351;SDS011;13304;48.464;8.712;2022-09-16T15:38:20;7.00;;;1.92;;
25351;SDS011;13304;48.464;8.712;2022-09-16T15:40:48;3.63;;;1.42;;
25351;SDS011;13304;48.464;8.712;2022-09-16T15:43:26;2.97;;;1.77;;
25351;SDS011;13304;48.464;8.712;2022-09-16T15:46:04;6.47;;;1.85;;
25351;SDS011;13304;48.464;8.712;2022-09-16T15:48:42;4.65;;;1.73;;
25351;SDS011;13304;48.464;8.712;2022-09-16T15:53:56;6.15;;;1.90;;
25351;SDS011;13304;48.464;8.712;2022-09-16T16:05:04;4.32;;;1.35;;
25351;SDS011;13304;48.464;8.712;2022-09-16T16:07:58;2.80;;;1.48;;
25351;SDS011;13304;48.464;8.712;2022-09-16T16:10:27;5.03;;;1.52;;
25351;SDS011;13304;48.464;8.712;2022-09-16T16:12:55;5.93;;;2.05;;
25351;SDS011;13304;48.464;8.712;2022-09-16T16:15:22;2.92;;;1.55;;
25351;SDS011;13304;48.464;8.712;2022-09-16T16:17:50;7.43;;;1.50;;
25351;SDS011;13304;48.464;8.712;2022-09-16T16:20:18;5.05;;;1.70;;
25351;SDS011;13304;48.464;8.712;2022-09-16T16:22:45;2.80;;;1.42;;
25351;SDS011;13304;48.464;8.712;2022-09-16T16:25:12;7.60;;;1.45;;
25351;SDS011;13304;48.464;8.712;2022-09-16T16:27:38;4.40;;;1.60;;
25351;SDS011;13304;48.464;8.712;2022-09-16T16:30:05;6.30;;;1.52;;
25351;SDS011;13304;48.464;8.712;2022-09-16T16:32:31;5.10;;;1.40;;
25351;SDS011;13304;48.464;8.712;2022-09-16T16:34:59;4.68;;;1.40;;
25351;SDS011;13304;48.464;8.712;2022-09-16T16:37:26;2.90;;;1.30;;
25351;SDS011;13304;48.464;8.712;2022-09-16T16:39:52;6.35;;;1.70;;
25351;SDS011;13304;48.464;8.712;2022-09-16T16:42:18;4.10;;;1.55;;
25351;SDS011;13304;48.464;8.712;2022-09-16T16:44:45;5.60;;;1.45;;
25351;SDS011;13304;48.464;8.712;2022-09-16T16:47:11;3.22;;;1.50;;
25351;SDS011;13304;48.464;8.712;2022-09-16T16:49:37;4.45;;;1.50;;
25351;SDS011;13304;48.464;8.712;2022-09-16T16:52:03;5.25;;;1.23;;
25351;SDS011;13304;48.464;8.712;2022-09-16T16:54:30;5.80;;;1.90;;
25351;SDS011;13304;48.464;8.712;2022-09-16T16:56:57;4.35;;;1.40;;
25351;SDS011;13304;48.464;8.712;2022-09-16T16:59:23;6.40;;;1.60;;
25351;SDS011;13304;48.464;8.712;2022-09-16T17:01:51;5.38;;;1.60;;
25351;SDS011;13304;48.464;8.712;2022-09-16T17:04:18;4.60;;;1.83;;
25351;SDS011;13304;48.464;8.712;2022-09-16T17:06:44;5.72;;;1.67;;
25351;SDS011;13304;48.464;8.712;2022-09-16T17:09:11;4.90;;;1.65;;
25351;SDS011;13304;48.464;8.712;2022-09-16T17:11:48;5.07;;;1.70;;
25351;SDS011;13304;48.464;8.712;2022-09-16T17:14:14;5.05;;;1.88;;
25351;SDS011;13304;48.464;8.712;2022-09-16T17:16:40;4.07;;;1.60;;
25351;SDS011;13304;48.464;8.712;2022-09-16T17:19:06;4.15;;;1.80;;
25351;SDS011;13304;48.464;8.712;2022-09-16T17:21:32;2.83;;;1.70;;
25351;SDS011;13304;48.464;8.712;2022-09-16T17:24:00;7.90;;;1.73;;
25351;SDS011;13304;48.464;8.712;2022-09-16T17:26:26;4.95;;;1.80;;
25351;SDS011;13304;48.464;8.712;2022-09-16T17:28:52;2.63;;;1.65;;
25351;SDS011;13304;48.464;8.712;2022-09-16T17:31:22;5.28;;;1.65;;
25351;SDS011;13304;48.464;8.712;2022-09-16T17:34:00;3.88;;;1.60;;
25351;SDS011;13304;48.464;8.712;2022-09-16T17:36:29;5.13;;;1.70;;
25351;SDS011;13304;48.464;8.712;2022-09-16T17:38:58;5.22;;;2.08;;
25351;SDS011;13304;48.464;8.712;2022-09-16T17:41:25;12.05;;;2.03;;
25351;SDS011;13304;48.464;8.712;2022-09-16T17:43:51;3.58;;;1.77;;
25351;SDS011;13304;48.464;8.712;2022-09-16T17:46:18;4.50;;;1.77;;
25351;SDS011;13304;48.464;8.712;2022-09-16T17:48:45;7.72;;;1.80;;
25351;SDS011;13304;48.464;8.712;2022-09-16T17:51:11;4.75;;;1.98;;
25351;SDS011;13304;48.464;8.712;2022-09-16T17:53:38;5.30;;;1.80;;
25351;SDS011;13304;48.464;8.712;2022-09-16T17:58:35;4.28;;;1.60;;
25351;SDS011;13304;48.464;8.712;2022-09-16T18:01:03;3.67;;;1.80;;
25351;SDS011;13304;48.464;8.712;2022-09-16T18:03:40;4.85;;;1.80;;
25351;SDS011;13304;48.464;8.712;2022-09-16T18:06:08;3.60;;;1.55;;
25351;SDS011;13304;48.464;8.712;2022-09-16T18:08:35;5.80;;;1.73;;
25351;SDS011;13304;48.464;8.712;2022-09-16T18:14:24;7.05;;;2.42;;
25351;SDS011;13304;48.464;8.712;2022-09-16T18:16:50;5.30;;;1.98;;
25351;SDS011;13304;48.464;8.712;2022-09-16T18:19:22;6.50;;;1.92;;
25351;SDS011;13304;48.464;8.712;2022-09-16T18:21:48;5.45;;;2.00;;
25351;SDS011;13304;48.464;8.712;2022-09-16T18:24:13;2.80;;;1.63;;
25351;SDS011;13304;48.464;8.712;2022-09-16T18:26:39;4.30;;;1.70;;
25351;SDS011;13304;48.464;8.712;2022-09-16T18:31:35;3.72;;;1.50;;
25351;SDS011;13304;48.464;8.712;2022-09-16T18:34:03;8.02;;;1.95;;
25351;SDS011;13304;48.464;8.712;2022-09-16T18:36:29;6.07;;;1.70;;
25351;SDS011;13304;48.464;8.712;2022-09-16T18:38:56;4.47;;;1.25;;
25351;SDS011;13304;48.464;8.712;2022-09-16T18:41:24;2.70;;;1.05;;
25351;SDS011;13304;48.464;8.712;2022-09-16T18:43:53;8.07;;;1.80;;
25351;SDS011;13304;48.464;8.712;2022-09-16T18:46:23;5.57;;;1.27;;
25351;SDS011;13304;48.464;8.712;2022-09-16T18:48:51;3.92;;;1.20;;
25351;SDS011;13304;48.464;8.712;2022-09-16T18:51:21;3.00;;;1.05;;
25351;SDS011;13304;48.464;8.712;2022-09-16T18:53:51;1.55;;;0.98;;
25351;SDS011;13304;48.464;8.712;2022-09-16T18:56:21;2.35;;;0.95;;
25351;SDS011;13304;48.464;8.712;2022-09-16T18:58:48;2.97;;;1.10;;
25351;SDS011;13304;48.464;8.712;2022-09-16T19:03:46;2.83;;;0.98;;